Terminal Aerodrome Forecast
Issued by NWS Sioux Falls, SD

Home | Current Version | Previous Version | Text Only | Print | Product List | Glossary On
Versions: 1 2 3 4 5 6 7 8 9 10 11 12 13 14
000
FTUS43 KFSD 070500
TAFFSD
TAF
KFSD 070520Z 0706/0806 VRB03KT P6SM SKC
     FM071400 25009KT P6SM SCT080 BKN120
     FM072000 27014G22KT P6SM SCT080 BKN120
     FM080100 31007KT P6SM FEW120=

USA.gov is the U.S. government's official web portal to all federal, state and local government web resources and services.